sensor_id;sensor_type;location;lat;lon;timestamp;pressure;altitude;pressure_sealevel;temperature;humidity
62634;BME280;48704;50.534;6.442;2022-10-31T00:02:07;96048.78;;;11.44;100.00
62634;BME280;48704;50.534;6.442;2022-10-31T00:04:32;96059.13;;;11.85;100.00
62634;BME280;48704;50.534;6.442;2022-10-31T00:06:57;96063.69;;;11.97;100.00
62634;BME280;48704;50.534;6.442;2022-10-31T00:09:23;96066.75;;;11.85;100.00
62634;BME280;48704;50.534;6.442;2022-10-31T00:11:48;96065.19;;;11.51;100.00
62634;BME280;48704;50.534;6.442;2022-10-31T00:14:13;96066.13;;;11.48;100.00
62634;BME280;48704;50.534;6.442;2022-10-31T00:16:38;96070.47;;;11.49;100.00
62634;BME280;48704;50.534;6.442;2022-10-31T00:19:06;96077.59;;;11.50;100.00
62634;BME280;48704;50.534;6.442;2022-10-31T00:21:32;96075.69;;;11.56;100.00
62634;BME280;48704;50.534;6.442;2022-10-31T00:23:58;96073.91;;;12.00;100.00
62634;BME280;48704;50.534;6.442;2022-10-31T00:26:24;96056.06;;;11.74;100.00
62634;BME280;48704;50.534;6.442;2022-10-31T00:28:49;96047.72;;;11.65;100.00
62634;BME280;48704;50.534;6.442;2022-10-31T00:31:16;96038.47;;;11.59;100.00
62634;BME280;48704;50.534;6.442;2022-10-31T00:33:42;96042.25;;;11.47;100.00
62634;BME280;48704;50.534;6.442;2022-10-31T00:36:11;96041.31;;;11.50;100.00
62634;BME280;48704;50.534;6.442;2022-10-31T00:38:37;96034.50;;;11.51;100.00
62634;BME280;48704;50.534;6.442;2022-10-31T00:41:02;96036.00;;;11.52;100.00
62634;BME280;48704;50.534;6.442;2022-10-31T00:43:27;96030.94;;;11.50;100.00
62634;BME280;48704;50.534;6.442;2022-10-31T00:45:53;96027.41;;;11.41;100.00
62634;BME280;48704;50.534;6.442;2022-10-31T00:48:18;96026.47;;;11.44;100.00
62634;BME280;48704;50.534;6.442;2022-10-31T00:50:43;96026.47;;;11.44;100.00
62634;BME280;48704;50.534;6.442;2022-10-31T00:53:09;96021.97;;;11.46;100.00
62634;BME280;48704;50.534;6.442;2022-10-31T00:55:34;96014.59;;;11.58;100.00
62634;BME280;48704;50.534;6.442;2022-10-31T00:58:00;96026.69;;;11.55;100.00
62634;BME280;48704;50.534;6.442;2022-10-31T01:00:25;96022.25;;;11.48;100.00
62634;BME280;48704;50.534;6.442;2022-10-31T01:02:50;96024.91;;;11.43;100.00
62634;BME280;48704;50.534;6.442;2022-10-31T01:05:16;96019.03;;;11.41;100.00
62634;BME280;48704;50.534;6.442;2022-10-31T01:07:41;96024.31;;;11.38;100.00
62634;BME280;48704;50.534;6.442;2022-10-31T01:10:08;96019.69;;;11.35;100.00
62634;BME280;48704;50.534;6.442;2022-10-31T01:12:43;96026.47;;;11.44;100.00
62634;BME280;48704;50.534;6.442;2022-10-31T01:15:11;96023.38;;;11.42;100.00
62634;BME280;48704;50.534;6.442;2022-10-31T01:17:37;96017.88;;;11.23;100.00
62634;BME280;48704;50.534;6.442;2022-10-31T01:20:03;96013.84;;;11.24;100.00
62634;BME280;48704;50.534;6.442;2022-10-31T01:22:29;96005.94;;;11.23;100.00
62634;BME280;48704;50.534;6.442;2022-10-31T01:24:54;96009.81;;;11.25;100.00
62634;BME280;48704;50.534;6.442;2022-10-31T01:27:20;96013.41;;;11.17;100.00
62634;BME280;48704;50.534;6.442;2022-10-31T01:29:45;96010.13;;;11.18;100.00
62634;BME280;48704;50.534;6.442;2022-10-31T01:32:10;96007.03;;;11.16;100.00
62634;BME280;48704;50.534;6.442;2022-10-31T01:34:36;96004.44;;;11.13;100.00
62634;BME280;48704;50.534;6.442;2022-10-31T01:37:01;96000.75;;;11.07;100.00
62634;BME280;48704;50.534;6.442;2022-10-31T01:39:26;96005.88;;;11.08;100.00
62634;BME280;48704;50.534;6.442;2022-10-31T01:41:53;96000.28;;;11.08;100.00
62634;BME280;48704;50.534;6.442;2022-10-31T01:49:30;96005.25;;;11.04;100.00
62634;BME280;48704;50.534;6.442;2022-10-31T01:52:01;95999.41;;;10.93;100.00
62634;BME280;48704;50.534;6.442;2022-10-31T01:54:31;96003.16;;;10.81;100.00
62634;BME280;48704;50.534;6.442;2022-10-31T01:56:59;96000.94;;;10.94;100.00
62634;BME280;48704;50.534;6.442;2022-10-31T01:59:28;96002.06;;;10.87;100.00
62634;BME280;48704;50.534;6.442;2022-10-31T02:01:55;96014.06;;;10.51;100.00
62634;BME280;48704;50.534;6.442;2022-10-31T02:04:22;96027.44;;;10.98;100.00
62634;BME280;48704;50.534;6.442;2022-10-31T02:06:58;96017.09;;;11.23;100.00
62634;BME280;48704;50.534;6.442;2022-10-31T02:09:25;96016.13;;;11.35;100.00
62634;BME280;48704;50.534;6.442;2022-10-31T02:11:52;96011.59;;;11.37;100.00
62634;BME280;48704;50.534;6.442;2022-10-31T02:14:24;96004.81;;;11.29;100.00
62634;BME280;48704;50.534;6.442;2022-10-31T02:16:50;96008.50;;;11.35;100.00
62634;BME280;48704;50.534;6.442;2022-10-31T02:19:26;96013.94;;;11.39;100.00
62634;BME280;48704;50.534;6.442;2022-10-31T02:22:02;96005.44;;;11.33;100.00
62634;BME280;48704;50.534;6.442;2022-10-31T02:24:39;96009.66;;;11.53;100.00
62634;BME280;48704;50.534;6.442;2022-10-31T02:32:26;95999.41;;;11.26;100.00
62634;BME280;48704;50.534;6.442;2022-10-31T02:35:03;95997.53;;;10.99;100.00
62634;BME280;48704;50.534;6.442;2022-10-31T02:40:36;95995.66;;;11.05;100.00
62634;BME280;48704;50.534;6.442;2022-10-31T02:45:48;95998.75;;;11.07;100.00
62634;BME280;48704;50.534;6.442;2022-10-31T02:48:19;95997.53;;;11.32;100.00
62634;BME280;48704;50.534;6.442;2022-10-31T02:50:58;96001.22;;;11.05;100.00
62634;BME280;48704;50.534;6.442;2022-10-31T02:53:24;95997.03;;;11.10;100.00
62634;BME280;48704;50.534;6.442;2022-10-31T02:55:59;96007.78;;;10.93;100.00
62634;BME280;48704;50.534;6.442;2022-10-31T02:58:30;96001.28;;;10.87;100.00
62634;BME280;48704;50.534;6.442;2022-10-31T03:06:53;95993.38;;;10.85;100.00
62634;BME280;48704;50.534;6.442;2022-10-31T03:09:45;95990.06;;;10.63;100.00
62634;BME280;48704;50.534;6.442;2022-10-31T03:12:31;95990.84;;;10.54;100.00
62634;BME280;48704;50.534;6.442;2022-10-31T03:15:16;95991.16;;;10.47;100.00
62634;BME280;48704;50.534;6.442;2022-10-31T03:17:55;95984.56;;;10.35;100.00
62634;BME280;48704;50.534;6.442;2022-10-31T03:20:41;95976.97;;;10.27;100.00
62634;BME280;48704;50.534;6.442;2022-10-31T03:23:13;95986.88;;;10.28;100.00
62634;BME280;48704;50.534;6.442;2022-10-31T03:25:40;95984.09;;;10.28;100.00
62634;BME280;48704;50.534;6.442;2022-10-31T03:28:07;95975.59;;;10.22;100.00
62634;BME280;48704;50.534;6.442;2022-10-31T03:30:37;95981.78;;;10.26;100.00
62634;BME280;48704;50.534;6.442;2022-10-31T03:33:06;95988.44;;;10.20;100.00
62634;BME280;48704;50.534;6.442;2022-10-31T03:35:35;95974.16;;;10.18;100.00
62634;BME280;48704;50.534;6.442;2022-10-31T03:38:02;95980.66;;;10.15;100.00
62634;BME280;48704;50.534;6.442;2022-10-31T03:40:29;95982.84;;;10.11;100.00
62634;BME280;48704;50.534;6.442;2022-10-31T03:43:03;95979.72;;;10.18;100.00
62634;BME280;48704;50.534;6.442;2022-10-31T03:45:33;95975.38;;;10.44;100.00
62634;BME280;48704;50.534;6.442;2022-10-31T03:48:01;95981.84;;;10.59;100.00
62634;BME280;48704;50.534;6.442;2022-10-31T03:50:33;95970.72;;;10.59;100.00
62634;BME280;48704;50.534;6.442;2022-10-31T03:53:24;95967.69;;;10.30;100.00
62634;BME280;48704;50.534;6.442;2022-10-31T03:56:19;95967.66;;;10.02;100.00
62634;BME280;48704;50.534;6.442;2022-10-31T03:59:04;95971.41;;;9.90;100.00
62634;BME280;48704;50.534;6.442;2022-10-31T04:01:31;95970.16;;;9.82;100.00
62634;BME280;48704;50.534;6.442;2022-10-31T04:03:57;95974.50;;;9.83;100.00
62634;BME280;48704;50.534;6.442;2022-10-31T04:06:24;95963.81;;;9.82;100.00
62634;BME280;48704;50.534;6.442;2022-10-31T04:09:01;95968.00;;;9.77;100.00
62634;BME280;48704;50.534;6.442;2022-10-31T04:11:30;95976.97;;;9.81;100.00
62634;BME280;48704;50.534;6.442;2022-10-31T04:13:58;95973.84;;;10.06;100.00
62634;BME280;48704;50.534;6.442;2022-10-31T04:16:26;95979.44;;;10.06;100.00
62634;BME280;48704;50.534;6.442;2022-10-31T04:18:51;95970.75;;;10.04;100.00
62634;BME280;48704;50.534;6.442;2022-10-31T04:21:17;95981.91;;;10.04;100.00
62634;BME280;48704;50.534;6.442;2022-10-31T04:23:42;95964.59;;;9.91;100.00
62634;BME280;48704;50.534;6.442;2022-10-31T04:26:10;95964.44;;;9.86;100.00
62634;BME280;48704;50.534;6.442;2022-10-31T04:28:36;95966.78;;;9.87;100.00
62634;BME280;48704;50.534;6.442;2022-10-31T04:31:02;95959.97;;;9.79;100.00
62634;BME280;48704;50.534;6.442;2022-10-31T04:33:27;95960.72;;;9.80;100.00
62634;BME280;48704;50.534;6.442;2022-10-31T04:35:52;95951.75;;;9.76;100.00
62634;BME280;48704;50.534;6.442;2022-10-31T04:38:18;95954.22;;;9.73;100.00
62634;BME280;48704;50.534;6.442;2022-10-31T04:40:44;95946.03;;;9.70;100.00
62634;BME280;48704;50.534;6.442;2022-10-31T04:43:10;95951.91;;;9.72;100.00
62634;BME280;48704;50.534;6.442;2022-10-31T04:45:36;95961.50;;;9.89;100.00
62634;BME280;48704;50.534;6.442;2022-10-31T04:48:01;95957.47;;;9.81;100.00
62634;BME280;48704;50.534;6.442;2022-10-31T04:50:27;95951.91;;;9.72;100.00
62634;BME280;48704;50.534;6.442;2022-10-31T04:52:52;95965.19;;;10.04;100.00
62634;BME280;48704;50.534;6.442;2022-10-31T04:55:17;95961.50;;;9.89;100.00
62634;BME280;48704;50.534;6.442;2022-10-31T04:57:44;95958.41;;;9.78;100.00
62634;BME280;48704;50.534;6.442;2022-10-31T05:00:11;95955.63;;;9.69;100.00
62634;BME280;48704;50.534;6.442;2022-10-31T05:02:50;95952.53;;;9.67;100.00
62634;BME280;48704;50.534;6.442;2022-10-31T05:05:17;95947.28;;;9.60;100.00
62634;BME280;48704;50.534;6.442;2022-10-31T05:07:44;95936.78;;;9.55;100.00
62634;BME280;48704;50.534;6.442;2022-10-31T05:10:12;95939.56;;;9.55;100.00
62634;BME280;48704;50.534;6.442;2022-10-31T05:12:37;95932.28;;;9.57;100.00
62634;BME280;48704;50.534;6.442;2022-10-31T05:15:04;95937.41;;;9.59;100.00
62634;BME280;48704;50.534;6.442;2022-10-31T05:17:31;95935.69;;;9.52;100.00
62634;BME280;48704;50.534;6.442;2022-10-31T05:19:56;95931.19;;;9.36;100.00
62634;BME280;48704;50.534;6.442;2022-10-31T05:22:21;95935.22;;;9.45;100.00
62634;BME280;48704;50.534;6.442;2022-10-31T05:24:47;95932.44;;;9.45;100.00
62634;BME280;48704;50.534;6.442;2022-10-31T05:27:12;95932.13;;;9.52;100.00
62634;BME280;48704;50.534;6.442;2022-10-31T05:29:37;95939.69;;;9.51;100.00
62634;BME280;48704;50.534;6.442;2022-10-31T05:32:03;95942.94;;;9.50;100.00
62634;BME280;48704;50.534;6.442;2022-10-31T05:34:28;95943.28;;;9.61;100.00
62634;BME280;48704;50.534;6.442;2022-10-31T05:36:53;95939.69;;;9.69;100.00
62634;BME280;48704;50.534;6.442;2022-10-31T05:39:19;95941.09;;;9.74;100.00
62634;BME280;48704;50.534;6.442;2022-10-31T05:41:44;95935.84;;;9.67;100.00
62634;BME280;48704;50.534;6.442;2022-10-31T05:44:09;95935.53;;;9.74;100.00
62634;BME280;48704;50.534;6.442;2022-10-31T05:46:34;95944.97;;;9.58;100.00
62634;BME280;48704;50.534;6.442;2022-10-31T05:49:00;95945.41;;;9.48;100.00
62634;BME280;48704;50.534;6.442;2022-10-31T05:51:25;95940.47;;;9.52;100.00
62634;BME280;48704;50.534;6.442;2022-10-31T05:53:50;95936.78;;;9.64;100.00
62634;BME280;48704;50.534;6.442;2022-10-31T05:56:16;95936.78;;;9.55;100.00
62634;BME280;48704;50.534;6.442;2022-10-31T05:58:41;95927.63;;;9.72;100.00
62634;BME280;48704;50.534;6.442;2022-10-31T06:01:06;95929.97;;;9.74;100.00
62634;BME280;48704;50.534;6.442;2022-10-31T06:03:32;95923.78;;;9.70;100.00
62634;BME280;48704;50.534;6.442;2022-10-31T06:05:57;95925.94;;;9.75;100.00
62634;BME280;48704;50.534;6.442;2022-10-31T06:08:22;95926.72;;;9.76;100.00
62634;BME280;48704;50.534;6.442;2022-10-31T06:10:48;95921.94;;;9.85;100.00
62634;BME280;48704;50.534;6.442;2022-10-31T06:13:13;95924.84;;;9.82;100.00
62634;BME280;48704;50.534;6.442;2022-10-31T06:15:38;95922.22;;;9.78;100.00
62634;BME280;48704;50.534;6.442;2022-10-31T06:18:05;95922.22;;;9.87;100.00
62634;BME280;48704;50.534;6.442;2022-10-31T06:20:31;95915.59;;;9.85;100.00
62634;BME280;48704;50.534;6.442;2022-10-31T06:22:57;95911.72;;;9.82;100.00
62634;BME280;48704;50.534;6.442;2022-10-31T06:25:23;95902.75;;;9.78;100.00
62634;BME280;48704;50.534;6.442;2022-10-31T06:27:48;95910.16;;;9.72;100.00
62634;BME280;48704;50.534;6.442;2022-10-31T06:30:13;95919.75;;;9.71;100.00
62634;BME280;48704;50.534;6.442;2022-10-31T06:32:39;95913.88;;;9.96;100.00
62634;BME280;48704;50.534;6.442;2022-10-31T06:35:04;95927.81;;;9.87;100.00
62634;BME280;48704;50.534;6.442;2022-10-31T06:37:30;95928.41;;;9.91;100.00
62634;BME280;48704;50.534;6.442;2022-10-31T06:39:55;95924.41;;;9.92;100.00
62634;BME280;48704;50.534;6.442;2022-10-31T06:42:20;95927.81;;;9.87;100.00
62634;BME280;48704;50.534;6.442;2022-10-31T06:44:46;95926.25;;;9.77;100.00
62634;BME280;48704;50.534;6.442;2022-10-31T06:47:11;95933.34;;;9.69;100.00
62634;BME280;48704;50.534;6.442;2022-10-31T06:49:36;95931.34;;;9.69;100.00
62634;BME280;48704;50.534;6.442;2022-10-31T06:52:02;95935.06;;;9.66;100.00
62634;BME280;48704;50.534;6.442;2022-10-31T06:54:27;95930.25;;;9.67;100.00
62634;BME280;48704;50.534;6.442;2022-10-31T06:56:52;95930.13;;;9.70;100.00
62634;BME280;48704;50.534;6.442;2022-10-31T06:59:17;95937.06;;;9.75;100.00
62634;BME280;48704;50.534;6.442;2022-10-31T07:01:43;95951.16;;;9.81;100.00
62634;BME280;48704;50.534;6.442;2022-10-31T07:04:10;95954.56;;;9.94;100.00
62634;BME280;48704;50.534;6.442;2022-10-31T07:06:35;95942.34;;;10.00;100.00
62634;BME280;48704;50.534;6.442;2022-10-31T07:09:00;95943.09;;;10.01;100.00
62634;BME280;48704;50.534;6.442;2022-10-31T07:11:26;95943.88;;;10.01;100.00
62634;BME280;48704;50.534;6.442;2022-10-31T07:13:51;95944.94;;;10.13;100.00
62634;BME280;48704;50.534;6.442;2022-10-31T07:16:16;95943.25;;;10.34;100.00
62634;BME280;48704;50.534;6.442;2022-10-31T07:18:41;95945.97;;;10.43;100.00
62634;BME280;48704;50.534;6.442;2022-10-31T07:21:07;95951.56;;;10.43;100.00
62634;BME280;48704;50.534;6.442;2022-10-31T07:23:32;95938.41;;;10.44;100.00
62634;BME280;48704;50.534;6.442;2022-10-31T07:25:58;95937.63;;;10.43;100.00
62634;BME280;48704;50.534;6.442;2022-10-31T07:28:25;95943.25;;;10.34;100.00
62634;BME280;48704;50.534;6.442;2022-10-31T07:30:56;95942.31;;;10.37;100.00
62634;BME280;48704;50.534;6.442;2022-10-31T07:33:21;95947.19;;;10.51;100.00
62634;BME280;48704;50.534;6.442;2022-10-31T07:35:47;95944.22;;;10.64;100.00
62634;BME280;48704;50.534;6.442;2022-10-31T07:38:13;95947.97;;;10.94;100.00
62634;BME280;48704;50.534;6.442;2022-10-31T07:40:40;95939.00;;;10.90;100.00
62634;BME280;48704;50.534;6.442;2022-10-31T07:43:06;95942.44;;;10.85;100.00
62634;BME280;48704;50.534;6.442;2022-10-31T07:45:31;95944.88;;;10.92;100.00
62634;BME280;48704;50.534;6.442;2022-10-31T07:47:57;95943.03;;;10.89;100.00
62634;BME280;48704;50.534;6.442;2022-10-31T07:50:27;95943.88;;;11.13;100.00
62634;BME280;48704;50.534;6.442;2022-10-31T07:53:05;95950.44;;;11.01;100.00
62634;BME280;48704;50.534;6.442;2022-10-31T07:55:31;95952.44;;;11.00;100.00
62634;BME280;48704;50.534;6.442;2022-10-31T07:58:02;95949.09;;;10.87;100.00
62634;BME280;48704;50.534;6.442;2022-10-31T08:00:28;95949.09;;;10.87;100.00
62634;BME280;48704;50.534;6.442;2022-10-31T08:03:01;95954.78;;;10.93;100.00
62634;BME280;48704;50.534;6.442;2022-10-31T08:05:27;95950.78;;;10.85;100.00
62634;BME280;48704;50.534;6.442;2022-10-31T08:07:53;95953.75;;;10.81;100.00
62634;BME280;48704;50.534;6.442;2022-10-31T08:10:19;95954.19;;;10.89;100.00
62634;BME280;48704;50.534;6.442;2022-10-31T08:12:44;95957.88;;;11.28;100.00
62634;BME280;48704;50.534;6.442;2022-10-31T08:15:10;95957.34;;;11.38;100.00
62634;BME280;48704;50.534;6.442;2022-10-31T08:17:36;95955.03;;;11.61;100.00
62634;BME280;48704;50.534;6.442;2022-10-31T08:20:03;95940.25;;;11.46;100.00
62634;BME280;48704;50.534;6.442;2022-10-31T08:22:28;95936.09;;;11.65;100.00
62634;BME280;48704;50.534;6.442;2022-10-31T08:24:53;95944.09;;;11.72;100.00
62634;BME280;48704;50.534;6.442;2022-10-31T08:27:18;95935.81;;;11.87;100.00
62634;BME280;48704;50.534;6.442;2022-10-31T08:29:44;95934.81;;;11.90;100.00
62634;BME280;48704;50.534;6.442;2022-10-31T08:32:09;95936.97;;;12.10;100.00
62634;BME280;48704;50.534;6.442;2022-10-31T08:34:34;95941.44;;;12.16;100.00
62634;BME280;48704;50.534;6.442;2022-10-31T08:37:00;95930.66;;;12.24;100.00
62634;BME280;48704;50.534;6.442;2022-10-31T08:39:25;95927.00;;;12.47;100.00
62634;BME280;48704;50.534;6.442;2022-10-31T08:41:50;95930.47;;;12.57;100.00
62634;BME280;48704;50.534;6.442;2022-10-31T08:44:16;95926.97;;;12.77;100.00
62634;BME280;48704;50.534;6.442;2022-10-31T08:46:41;95930.44;;;12.71;100.00
62634;BME280;48704;50.534;6.442;2022-10-31T08:49:06;95923.09;;;12.89;100.00
62634;BME280;48704;50.534;6.442;2022-10-31T08:51:32;95918.28;;;13.24;100.00
62634;BME280;48704;50.534;6.442;2022-10-31T08:53:57;95914.53;;;13.27;100.00
62634;BME280;48704;50.534;6.442;2022-10-31T08:56:22;95919.59;;;13.64;100.00
62634;BME280;48704;50.534;6.442;2022-10-31T08:58:48;95926.16;;;13.61;100.00
62634;BME280;48704;50.534;6.442;2022-10-31T09:01:13;95918.44;;;14.22;100.00
62634;BME280;48704;50.534;6.442;2022-10-31T09:03:38;95914.59;;;14.71;100.00
62634;BME280;48704;50.534;6.442;2022-10-31T09:06:04;95906.91;;;14.98;100.00
62634;BME280;48704;50.534;6.442;2022-10-31T09:08:34;95899.69;;;15.28;100.00
62634;BME280;48704;50.534;6.442;2022-10-31T09:11:01;95903.00;;;15.75;100.00
62634;BME280;48704;50.534;6.442;2022-10-31T09:13:26;95897.84;;;15.57;100.00
62634;BME280;48704;50.534;6.442;2022-10-31T09:15:52;95895.97;;;16.08;100.00
62634;BME280;48704;50.534;6.442;2022-10-31T09:18:20;95903.22;;;16.53;100.00
62634;BME280;48704;50.534;6.442;2022-10-31T09:20:47;95895.56;;;17.04;100.00
62634;BME280;48704;50.534;6.442;2022-10-31T09:23:18;95891.47;;;17.05;100.00
62634;BME280;48704;50.534;6.442;2022-10-31T09:25:45;95884.78;;;17.19;99.99
62634;BME280;48704;50.534;6.442;2022-10-31T09:28:12;95879.19;;;16.86;100.00
62634;BME280;48704;50.534;6.442;2022-10-31T09:30:38;95873.03;;;16.48;100.00
62634;BME280;48704;50.534;6.442;2022-10-31T09:33:06;95861.03;;;16.76;100.00
62634;BME280;48704;50.534;6.442;2022-10-31T09:35:32;95860.00;;;16.79;100.00
62634;BME280;48704;50.534;6.442;2022-10-31T09:37:59;95856.09;;;16.09;100.00
62634;BME280;48704;50.534;6.442;2022-10-31T09:45:47;95847.38;;;15.90;100.00
62634;BME280;48704;50.534;6.442;2022-10-31T09:50:55;95838.56;;;15.55;100.00
62634;BME280;48704;50.534;6.442;2022-10-31T09:56:07;95839.03;;;16.52;100.00
62634;BME280;48704;50.534;6.442;2022-10-31T09:58:40;95842.13;;;16.65;100.00
62634;BME280;48704;50.534;6.442;2022-10-31T10:01:24;95838.75;;;16.55;100.00
62634;BME280;48704;50.534;6.442;2022-10-31T10:03:55;95832.88;;;16.53;100.00
62634;BME280;48704;50.534;6.442;2022-10-31T10:06:25;95823.94;;;16.71;100.00
62634;BME280;48704;50.534;6.442;2022-10-31T10:08:52;95839.53;;;16.61;100.00
62634;BME280;48704;50.534;6.442;2022-10-31T10:12:06;95824.44;;;16.53;100.00
62634;BME280;48704;50.534;6.442;2022-10-31T10:20:02;95831.06;;;16.17;100.00
62634;BME280;48704;50.534;6.442;2022-10-31T10:25:31;95842.09;;;16.43;100.00
62634;BME280;48704;50.534;6.442;2022-10-31T10:30:48;95835.69;;;16.81;100.00
62634;BME280;48704;50.534;6.442;2022-10-31T10:33:21;95844.94;;;16.65;100.00
62634;BME280;48704;50.534;6.442;2022-10-31T10:35:52;95832.38;;;16.83;100.00
62634;BME280;48704;50.534;6.442;2022-10-31T10:38:32;95837.75;;;16.58;100.00
62634;BME280;48704;50.534;6.442;2022-10-31T10:41:01;95840.81;;;16.94;100.00
62634;BME280;48704;50.534;6.442;2022-10-31T10:43:36;95832.53;;;17.29;100.00
62634;BME280;48704;50.534;6.442;2022-10-31T10:46:13;95827.91;;;17.37;95.48
62634;BME280;48704;50.534;6.442;2022-10-31T10:49:18;95814.63;;;17.85;95.89
62634;BME280;48704;50.534;6.442;2022-10-31T10:51:54;95813.72;;;17.65;93.67
62634;BME280;48704;50.534;6.442;2022-10-31T10:57:07;95799.41;;;18.04;93.79
62634;BME280;48704;50.534;6.442;2022-10-31T10:59:36;95795.44;;;17.83;95.83
62634;BME280;48704;50.534;6.442;2022-10-31T11:02:03;95792.78;;;17.96;94.20
62634;BME280;48704;50.534;6.442;2022-10-31T11:04:34;95791.91;;;17.77;94.50
62634;BME280;48704;50.534;6.442;2022-10-31T11:07:08;95786.19;;;17.30;96.12
62634;BME280;48704;50.534;6.442;2022-10-31T11:09:35;95781.69;;;17.63;93.39
62634;BME280;48704;50.534;6.442;2022-10-31T11:12:17;95788.28;;;17.19;95.88
62634;BME280;48704;50.534;6.442;2022-10-31T11:14:54;95769.56;;;17.21;95.26
62634;BME280;48704;50.534;6.442;2022-10-31T11:17:32;95767.41;;;16.81;97.42
62634;BME280;48704;50.534;6.442;2022-10-31T11:22:46;95764.97;;;17.18;95.98
62634;BME280;48704;50.534;6.442;2022-10-31T11:25:25;95760.31;;;17.32;94.86
62634;BME280;48704;50.534;6.442;2022-10-31T11:28:01;95759.28;;;17.41;92.46
62634;BME280;48704;50.534;6.442;2022-10-31T11:30:27;95753.00;;;17.07;97.41
62634;BME280;48704;50.534;6.442;2022-10-31T11:32:53;95746.88;;;17.55;92.60
62634;BME280;48704;50.534;6.442;2022-10-31T11:35:20;95746.41;;;17.51;93.09
62634;BME280;48704;50.534;6.442;2022-10-31T11:37:48;95751.59;;;17.35;92.38
62634;BME280;48704;50.534;6.442;2022-10-31T11:40:17;95733.53;;;17.09;97.00
62634;BME280;48704;50.534;6.442;2022-10-31T11:42:44;95731.72;;;17.11;96.75
62634;BME280;48704;50.534;6.442;2022-10-31T11:45:25;95729.88;;;17.30;95.25
62634;BME280;48704;50.534;6.442;2022-10-31T11:47:53;95729.72;;;17.58;91.70
62634;BME280;48704;50.534;6.442;2022-10-31T11:50:37;95720.88;;;17.37;94.23
62634;BME280;48704;50.534;6.442;2022-10-31T11:53:04;95715.09;;;17.60;92.24
62634;BME280;48704;50.534;6.442;2022-10-31T11:55:38;95709.91;;;17.28;92.53
62634;BME280;48704;50.534;6.442;2022-10-31T11:58:20;95705.13;;;17.59;93.39
62634;BME280;48704;50.534;6.442;2022-10-31T12:00:50;95687.97;;;17.57;90.88
62634;BME280;48704;50.534;6.442;2022-10-31T12:06:02;95683.09;;;17.57;91.22
62634;BME280;48704;50.534;6.442;2022-10-31T12:08:34;95662.06;;;17.64;90.27
62634;BME280;48704;50.534;6.442;2022-10-31T12:11:23;95650.75;;;17.28;90.36
62634;BME280;48704;50.534;6.442;2022-10-31T12:14:04;95652.28;;;17.29;91.06
62634;BME280;48704;50.534;6.442;2022-10-31T12:38:38;95624.31;;;18.08;85.49
62634;BME280;48704;50.534;6.442;2022-10-31T12:52:19;95614.47;;;17.90;84.69
62634;BME280;48704;50.534;6.442;2022-10-31T12:54:53;95609.50;;;18.02;85.91
62634;BME280;48704;50.534;6.442;2022-10-31T12:58:21;95602.22;;;17.82;84.30
62634;BME280;48704;50.534;6.442;2022-10-31T13:00:17;95602.09;;;17.99;84.78
62634;BME280;48704;50.534;6.442;2022-10-31T13:08:06;95581.53;;;17.80;86.52
62634;BME280;48704;50.534;6.442;2022-10-31T13:10:47;95579.13;;;18.14;84.05
62634;BME280;48704;50.534;6.442;2022-10-31T13:13:34;95574.00;;;18.61;82.51
62634;BME280;48704;50.534;6.442;2022-10-31T13:16:04;95563.44;;;18.86;81.62
62634;BME280;48704;50.534;6.442;2022-10-31T13:18:52;95555.25;;;19.01;80.86
62634;BME280;48704;50.534;6.442;2022-10-31T13:21:29;95553.81;;;19.64;78.28
62634;BME280;48704;50.534;6.442;2022-10-31T13:23:59;95546.94;;;19.59;77.92
62634;BME280;48704;50.534;6.442;2022-10-31T13:26:58;95548.78;;;19.57;78.35
62634;BME280;48704;50.534;6.442;2022-10-31T13:29:31;95545.13;;;18.49;83.82
62634;BME280;48704;50.534;6.442;2022-10-31T13:31:59;95537.41;;;18.74;82.84
62634;BME280;48704;50.534;6.442;2022-10-31T13:34:30;95530.25;;;18.92;82.26
62634;BME280;48704;50.534;6.442;2022-10-31T13:37:09;95531.19;;;19.13;80.96
62634;BME280;48704;50.534;6.442;2022-10-31T13:39:57;95514.34;;;18.51;84.08
62634;BME280;48704;50.534;6.442;2022-10-31T13:42:43;95502.41;;;18.40;84.02
62634;BME280;48704;50.534;6.442;2022-10-31T13:45:15;95505.19;;;18.21;84.99
62634;BME280;48704;50.534;6.442;2022-10-31T13:47:42;95495.22;;;18.20;85.00
62634;BME280;48704;50.534;6.442;2022-10-31T13:52:45;95492.31;;;17.82;86.82
62634;BME280;48704;50.534;6.442;2022-10-31T13:55:37;95491.16;;;17.72;88.67
62634;BME280;48704;50.534;6.442;2022-10-31T13:58:28;95485.09;;;17.57;89.51
62634;BME280;48704;50.534;6.442;2022-10-31T14:01:12;95477.75;;;17.78;87.18
62634;BME280;48704;50.534;6.442;2022-10-31T14:03:41;95485.38;;;17.83;87.68
62634;BME280;48704;50.534;6.442;2022-10-31T14:06:08;95476.44;;;18.03;86.98
62634;BME280;48704;50.534;6.442;2022-10-31T14:08:36;95474.25;;;17.72;88.45
62634;BME280;48704;50.534;6.442;2022-10-31T14:11:03;95481.50;;;18.11;85.20
62634;BME280;48704;50.534;6.442;2022-10-31T14:13:37;95483.66;;;18.42;83.05
62634;BME280;48704;50.534;6.442;2022-10-31T14:16:21;95473.66;;;17.79;86.96
62634;BME280;48704;50.534;6.442;2022-10-31T14:18:51;95475.03;;;17.91;85.12
62634;BME280;48704;50.534;6.442;2022-10-31T14:23:47;95468.38;;;17.10;89.42
62634;BME280;48704;50.534;6.442;2022-10-31T14:28:55;95474.72;;;17.76;87.38
62634;BME280;48704;50.534;6.442;2022-10-31T14:33:52;95460.94;;;18.91;79.75
62634;BME280;48704;50.534;6.442;2022-10-31T14:36:25;95463.31;;;18.87;79.86
62634;BME280;48704;50.534;6.442;2022-10-31T14:39:02;95460.59;;;18.94;78.79
62634;BME280;48704;50.534;6.442;2022-10-31T14:41:44;95457.59;;;19.37;77.18
62634;BME280;48704;50.534;6.442;2022-10-31T14:49:52;95436.25;;;20.21;70.92
62634;BME280;48704;50.534;6.442;2022-10-31T14:52:24;95429.44;;;19.64;73.66
62634;BME280;48704;50.534;6.442;2022-10-31T14:54:53;95433.59;;;19.44;75.14